createdAt,value
2023-03-22T00:01:31.058Z,51.82
2023-03-22T00:03:57.867Z,53.08
2023-03-22T00:06:24.871Z,52.63
2023-03-22T00:08:52.778Z,53.97
2023-03-22T00:11:20.641Z,53.78
2023-03-22T00:13:47.306Z,53.38
2023-03-22T00:16:14.561Z,53.12
2023-03-22T00:18:41.335Z,53.60
2023-03-22T00:21:11.868Z,53.10
2023-03-22T00:23:38.489Z,55.09
2023-03-22T00:26:05.306Z,54.46
2023-03-22T00:28:31.865Z,55.66
2023-03-22T00:31:00.234Z,54.46
2023-03-22T00:33:27.957Z,54.39
2023-03-22T00:35:57.307Z,53.26
2023-03-22T00:38:39.516Z,53.95
2023-03-22T00:41:19.151Z,53.93
2023-03-22T00:43:46.571Z,54.74
2023-03-22T00:46:13.621Z,55.00
2023-03-22T00:48:40.352Z,54.51
2023-03-22T00:51:07.795Z,55.04
2023-03-22T00:53:42.404Z,54.95
2023-03-22T00:56:10.819Z,57.40
2023-03-22T00:59:04.341Z,56.39
2023-03-22T01:01:31.164Z,56.94
2023-03-22T01:03:58.000Z,57.11
2023-03-22T01:06:24.748Z,56.25
2023-03-22T01:08:51.476Z,56.17
2023-03-22T01:11:18.352Z,55.78
2023-03-22T01:13:45.638Z,55.83
2023-03-22T01:16:13.626Z,55.61
2023-03-22T01:18:40.831Z,58.22
2023-03-22T01:21:08.972Z,57.98
2023-03-22T01:23:35.907Z,57.96
2023-03-22T01:26:02.887Z,58.80
2023-03-22T01:28:29.601Z,59.05
2023-03-22T01:30:56.640Z,58.26
2023-03-22T01:33:23.346Z,57.48
2023-03-22T01:35:51.593Z,57.13
2023-03-22T01:38:19.782Z,56.47
2023-03-22T01:40:57.215Z,57.06
2023-03-22T01:43:26.055Z,57.68
2023-03-22T01:45:53.823Z,57.62
2023-03-22T01:48:34.342Z,58.72
2023-03-22T01:51:04.478Z,58.24
2023-03-22T01:53:39.425Z,57.32
2023-03-22T01:56:07.775Z,57.60
2023-03-22T01:58:37.054Z,57.32
2023-03-22T02:01:06.577Z,57.58
2023-03-22T02:04:03.145Z,56.26
2023-03-22T02:06:30.032Z,58.26
2023-03-22T02:09:12.471Z,58.34
2023-03-22T02:11:41.939Z,59.48
2023-03-22T02:14:44.083Z,57.87
2023-03-22T02:17:51.321Z,56.71
2023-03-22T02:20:24.779Z,57.16
2023-03-22T02:22:53.246Z,58.69
2023-03-22T02:25:39.701Z,58.45
2023-03-22T02:28:26.009Z,58.79
2023-03-22T02:30:55.601Z,59.21
2023-03-22T02:33:45.571Z,58.01
2023-03-22T02:36:13.733Z,57.18
2023-03-22T02:39:04.685Z,57.45
2023-03-22T02:41:31.419Z,56.38
2023-03-22T02:44:06.625Z,56.25
2023-03-22T02:46:33.259Z,56.24
2023-03-22T02:49:14.174Z,56.62
2023-03-22T02:51:46.908Z,57.08
2023-03-22T02:54:21.092Z,58.44
2023-03-22T02:56:49.961Z,57.15
2023-03-22T02:59:17.024Z,58.21
2023-03-22T03:01:47.823Z,57.47
2023-03-22T03:04:18.358Z,58.45
2023-03-22T03:06:47.165Z,58.66
2023-03-22T03:09:18.098Z,58.48
2023-03-22T03:11:49.283Z,58.09
2023-03-22T03:14:23.731Z,58.38
2023-03-22T03:16:55.755Z,59.16
2023-03-22T03:19:34.079Z,57.19
2023-03-22T03:22:13.557Z,57.86
2023-03-22T03:24:46.582Z,57.73
2023-03-22T03:27:13.364Z,57.14
2023-03-22T03:29:40.019Z,55.37
2023-03-22T03:32:31.543Z,54.91
2023-03-22T03:35:01.432Z,54.74
2023-03-22T03:37:34.500Z,56.08
2023-03-22T03:40:06.096Z,57.83
2023-03-22T03:42:33.612Z,57.59
2023-03-22T03:45:01.045Z,55.81
2023-03-22T03:47:28.827Z,56.09
2023-03-22T03:49:55.938Z,56.10
2023-03-22T03:52:24.580Z,57.31
2023-03-22T03:54:52.694Z,57.12
2023-03-22T03:57:26.240Z,58.79
2023-03-22T03:59:53.406Z,56.98
2023-03-22T04:02:43.711Z,56.45
2023-03-22T04:05:24.656Z,55.31
2023-03-22T04:07:51.247Z,55.62
2023-03-22T04:10:18.756Z,55.46
2023-03-22T04:12:45.375Z,55.42
2023-03-22T04:15:16.554Z,56.55
2023-03-22T04:17:49.372Z,56.46
2023-03-22T04:20:17.191Z,56.90
2023-03-22T04:22:46.892Z,57.29
2023-03-22T04:25:14.273Z,56.09
2023-03-22T04:27:51.300Z,54.70
2023-03-22T04:30:20.311Z,56.03
2023-03-22T04:33:07.274Z,55.39
2023-03-22T04:36:05.629Z,56.42
2023-03-22T04:38:39.825Z,56.62
2023-03-22T04:41:10.898Z,56.10
2023-03-22T04:43:42.621Z,56.90
2023-03-22T04:46:13.841Z,56.88
2023-03-22T04:48:49.892Z,57.16
2023-03-22T04:51:17.619Z,56.84
2023-03-22T04:54:09.644Z,57.99
2023-03-22T04:56:41.386Z,55.90
2023-03-22T04:59:08.172Z,55.14
2023-03-22T05:01:35.478Z,56.94
2023-03-22T05:04:10.780Z,57.62
2023-03-22T05:06:37.641Z,58.06
2023-03-22T05:09:11.970Z,56.73
2023-03-22T05:11:40.793Z,57.43
2023-03-22T05:14:26.305Z,58.42
2023-03-22T05:16:53.180Z,56.91
2023-03-22T05:19:22.266Z,56.43
2023-03-22T05:21:57.867Z,56.24
2023-03-22T05:24:31.639Z,57.50
2023-03-22T05:27:01.176Z,56.64
2023-03-22T05:29:28.584Z,57.43
2023-03-22T05:32:04.516Z,56.45
2023-03-22T05:34:35.873Z,57.26
2023-03-22T05:37:13.848Z,58.00
2023-03-22T05:39:49.464Z,56.56
2023-03-22T05:42:16.881Z,58.52
2023-03-22T05:44:43.904Z,58.98
2023-03-22T05:47:12.920Z,58.04
2023-03-22T05:49:49.800Z,57.00
2023-03-22T05:52:17.708Z,56.36
2023-03-22T05:54:56.008Z,56.91
2023-03-22T05:57:22.676Z,56.75
2023-03-22T05:59:49.343Z,58.01
2023-03-22T06:02:23.473Z,56.75
2023-03-22T06:04:50.340Z,57.98
2023-03-22T06:07:18.042Z,56.68
2023-03-22T06:09:50.308Z,57.67
2023-03-22T06:12:24.661Z,57.67
2023-03-22T06:15:10.948Z,58.41
2023-03-22T06:17:51.389Z,56.78
2023-03-22T06:20:22.740Z,55.52
2023-03-22T06:22:55.420Z,55.83
2023-03-22T06:25:23.226Z,56.08
2023-03-22T06:27:50.255Z,55.73
2023-03-22T06:30:19.168Z,56.39
2023-03-22T06:33:09.648Z,55.09
2023-03-22T06:35:40.595Z,54.84
2023-03-22T06:38:09.833Z,54.39
2023-03-22T06:40:37.858Z,55.32
2023-03-22T06:43:07.239Z,55.38
2023-03-22T06:45:36.152Z,55.83
2023-03-22T06:48:04.384Z,55.04
2023-03-22T06:50:44.952Z,55.03
2023-03-22T06:53:15.772Z,55.91
2023-03-22T06:55:43.248Z,55.77
2023-03-22T06:58:13.882Z,54.90
2023-03-22T07:00:41.476Z,53.96
2023-03-22T07:03:08.700Z,54.44
2023-03-22T07:05:48.728Z,53.94
2023-03-22T07:08:16.193Z,54.53
2023-03-22T07:10:51.594Z,54.15
2023-03-22T07:13:21.174Z,55.66
2023-03-22T07:15:49.766Z,54.24
2023-03-22T07:18:34.795Z,53.10
2023-03-22T07:21:01.893Z,53.09
2023-03-22T07:23:29.038Z,53.65
2023-03-22T07:26:01.297Z,52.81
2023-03-22T07:28:32.054Z,52.66
2023-03-22T07:31:01.356Z,54.57
2023-03-22T07:33:31.169Z,54.22
2023-03-22T07:35:58.155Z,53.40
2023-03-22T07:38:25.153Z,52.93
2023-03-22T07:40:55.029Z,51.98
2023-03-22T07:43:25.658Z,53.90
2023-03-22T07:45:56.134Z,54.20
2023-03-22T07:48:48.597Z,53.86
2023-03-22T07:51:30.408Z,54.39
2023-03-22T07:53:57.834Z,54.51
2023-03-22T07:56:26.103Z,54.37
2023-03-22T07:58:53.199Z,52.72
2023-03-22T08:01:19.825Z,52.34
2023-03-22T08:04:02.829Z,51.30
2023-03-22T08:06:37.890Z,51.33
2023-03-22T08:09:05.417Z,52.61
2023-03-22T08:11:32.497Z,51.96
2023-03-22T08:13:59.287Z,51.80
2023-03-22T08:16:26.398Z,52.66
2023-03-22T08:18:53.323Z,51.22
2023-03-22T08:21:21.362Z,52.29
2023-03-22T08:23:53.128Z,52.67
2023-03-22T08:26:45.749Z,53.33
2023-03-22T08:29:23.211Z,53.14
2023-03-22T08:31:51.019Z,53.12
2023-03-22T08:34:18.130Z,53.29
2023-03-22T08:36:45.422Z,53.74
2023-03-22T08:39:12.596Z,53.45
2023-03-22T08:41:56.320Z,53.53
2023-03-22T08:44:25.885Z,54.70
2023-03-22T08:46:52.832Z,54.94
2023-03-22T08:49:19.631Z,53.52
2023-03-22T08:51:57.697Z,54.05
2023-03-22T08:54:56.811Z,53.31
2023-03-22T08:57:53.744Z,52.48
2023-03-22T09:00:48.196Z,52.13
2023-03-22T09:03:36.975Z,52.04
2023-03-22T09:06:04.611Z,51.56
2023-03-22T09:08:36.912Z,52.42
2023-03-22T09:11:09.389Z,52.18
2023-03-22T09:13:36.295Z,51.32
2023-03-22T09:16:04.270Z,51.12
2023-03-22T09:18:33.051Z,51.50
2023-03-22T09:21:03.674Z,51.73
2023-03-22T09:23:37.985Z,52.09
2023-03-22T09:26:08.988Z,51.73
2023-03-22T09:28:36.828Z,51.69
2023-03-22T09:31:06.817Z,52.38
2023-03-22T09:33:34.708Z,52.17
2023-03-22T09:36:02.034Z,53.79
2023-03-22T09:38:33.294Z,53.47
2023-03-22T09:41:27.256Z,53.16
2023-03-22T09:43:57.044Z,51.86
2023-03-22T09:46:37.580Z,51.18
2023-03-22T09:49:16.202Z,51.20
2023-03-22T09:51:47.422Z,51.53
2023-03-22T09:54:21.415Z,51.26
2023-03-22T09:56:54.594Z,51.00
2023-03-22T09:59:33.105Z,51.04
2023-03-22T10:02:01.251Z,51.65
2023-03-22T10:04:34.035Z,51.01
2023-03-22T10:07:19.870Z,49.86
2023-03-22T10:09:57.853Z,50.40
2023-03-22T10:12:28.711Z,49.19
2023-03-22T10:15:15.708Z,48.56
2023-03-22T10:17:44.925Z,48.62
2023-03-22T10:20:11.632Z,49.53
2023-03-22T10:22:40.740Z,48.84
2023-03-22T10:25:09.589Z,49.00
2023-03-22T10:27:37.341Z,48.51
2023-03-22T10:30:04.026Z,48.70
2023-03-22T10:32:56.406Z,49.59
2023-03-22T10:35:24.691Z,49.80
2023-03-22T10:37:52.549Z,49.21
2023-03-22T10:40:20.804Z,48.76
2023-03-22T10:42:55.865Z,48.94
2023-03-22T10:45:24.475Z,49.14
2023-03-22T10:48:00.442Z,48.21
2023-03-22T10:50:32.349Z,47.14
2023-03-22T10:53:11.573Z,48.29
2023-03-22T10:55:43.534Z,48.71
2023-03-22T10:58:12.256Z,48.51
2023-03-22T11:00:43.597Z,48.29
2023-03-22T11:03:22.885Z,47.87
2023-03-22T11:05:57.981Z,47.96
2023-03-22T11:08:24.751Z,47.26
2023-03-22T11:10:52.495Z,47.98
2023-03-22T11:13:22.433Z,47.43
2023-03-22T11:15:51.321Z,48.55
2023-03-22T11:18:18.812Z,48.58
2023-03-22T11:20:57.620Z,48.41
2023-03-22T11:23:25.004Z,48.70
2023-03-22T11:25:52.625Z,49.00
2023-03-22T11:28:21.254Z,48.95
2023-03-22T11:30:59.132Z,48.26
2023-03-22T11:33:26.849Z,47.83
2023-03-22T11:35:58.030Z,47.54
2023-03-22T11:38:26.359Z,47.19
2023-03-22T11:40:55.062Z,47.31
2023-03-22T11:43:27.749Z,47.54
2023-03-22T11:45:56.754Z,46.96
2023-03-22T11:48:27.460Z,46.70
2023-03-22T11:50:55.814Z,46.65
2023-03-22T11:53:24.598Z,47.24
2023-03-22T11:55:53.217Z,46.71
2023-03-22T11:58:40.898Z,47.14
2023-03-22T12:01:11.010Z,47.38
2023-03-22T12:03:39.996Z,48.68
2023-03-22T12:06:24.486Z,48.67
2023-03-22T12:08:54.346Z,48.29
2023-03-22T12:11:41.192Z,47.98
2023-03-22T12:14:21.841Z,48.62
2023-03-22T12:16:55.071Z,48.94
2023-03-22T12:19:40.916Z,49.39
2023-03-22T12:22:16.364Z,48.86
2023-03-22T12:24:43.229Z,49.39
2023-03-22T12:27:16.813Z,50.34
2023-03-22T12:29:47.178Z,50.27
2023-03-22T12:32:18.287Z,50.37
2023-03-22T12:34:48.157Z,48.99
2023-03-22T12:37:17.841Z,48.38
2023-03-22T12:39:54.191Z,47.68
2023-03-22T12:42:27.404Z,46.78
2023-03-22T12:45:05.464Z,47.17
2023-03-22T12:47:38.543Z,46.42
2023-03-22T12:50:11.928Z,46.40
2023-03-22T12:52:45.610Z,45.31
2023-03-22T12:55:24.592Z,44.77
2023-03-22T12:57:52.625Z,45.32
2023-03-22T13:00:20.762Z,45.03
2023-03-22T13:03:13.995Z,45.22
2023-03-22T13:05:41.175Z,46.81
2023-03-22T13:08:07.905Z,45.90
2023-03-22T13:10:36.529Z,45.38
2023-03-22T13:13:15.630Z,45.65
2023-03-22T13:16:00.911Z,45.83
2023-03-22T13:18:33.461Z,45.85
2023-03-22T13:21:09.475Z,46.49
2023-03-22T13:23:36.209Z,45.29
2023-03-22T13:26:04.529Z,45.30
2023-03-22T13:28:37.186Z,45.57
2023-03-22T13:31:04.675Z,46.32
2023-03-22T13:33:35.930Z,46.06
2023-03-22T13:36:07.575Z,46.12
2023-03-22T13:38:42.537Z,46.52
2023-03-22T13:41:20.907Z,46.71
2023-03-22T13:44:10.793Z,47.98
2023-03-22T13:46:37.529Z,48.24
2023-03-22T13:49:04.345Z,48.72
2023-03-22T13:51:32.250Z,48.84
2023-03-22T13:54:00.536Z,47.86
2023-03-22T13:56:43.018Z,48.50
2023-03-22T13:59:19.165Z,47.37
2023-03-22T14:01:49.408Z,47.00
2023-03-22T14:04:31.347Z,45.88
2023-03-22T14:07:19.521Z,45.18
2023-03-22T14:09:50.151Z,45.28
2023-03-22T14:12:27.622Z,44.08
2023-03-22T14:15:00.391Z,43.84
2023-03-22T14:17:31.775Z,44.61
2023-03-22T14:19:59.186Z,46.10
